MYGF

Grand Bahama International Airport

Freeport, , Bahamas
TAF COR MYGF 212240Z 2200/2224 VRB02KT 9999 VCSH FEW012CB SCT018 BKN100 FM221200 09010KT 9999 SHRA SCT015CB BKN030
Issued Valid From Valid To
Sep-21 @ 22:40 UTC
(5 hours ago)
Sep-22 @ 00:00 UTC
(3 hours ago)
Sep-23 @ 00:00 UTC
(in 21 hours)
to
to
TAF COR MYGF 212240Z 2200/2224 VRB02KT 9999 VCSH FEW012CB SCT018 BKN100 FM221200 09010KT 9999 SHRA SCT015CB BKN030
Issued Sep-21 @ 22:40 UTC
(5 hours ago)
Valid From Sep-22 @ 00:00 UTC
(3 hours ago)
Valid To Sep-23 @ 00:00 UTC
(in 21 hours)
-
-